Napa, CA (94558)

2:36 PM PDT on September 04, 2015 (GMT -0700)
Old Soda Springs Rd 850 ft | | Change Station
CLOSE
Current Station
Personal Weather Station
Location: Napa, CA
Elevation: 846 ft
Nearby Weather Stations

Elev 846 ft 38.38 °N, 122.27 °W | Updated 54 seconds ago

Clear
Clear
75.8 °F
Feels Like 78 °F
N
10.0
Wind Variable Wind from SSW
Gusts 19.0 mph

Today
High -- | Low -- °F
--% Chance of Precip.
Yesterday
High -- | Low -- °F
Precip. -- in
6:41 AM 7:34 PM
Waning Gibbous, 56% visible
Pressure 29.81 in
Visibility 10.0 miles
Clouds Clear
Heat Index 78 °F
Dew Point 49 °F
Humidity 39%
Rainfall 0.00 in
Snow Depth Not available.
UV 9 out of 12
Pollen 8.90 out of 12
Air Quality Not available.
Flu Activity Not available.
METAR KAPC 042054Z 21016KT 10SM CLR 24/09 A2983 RMK AO2 SLP093 T02390089 58010
Pressure 29.81 in
Visibility 10.0 miles
Clouds Clear
Heat Index 78 °F
Dew Point 49 °F
Humidity 39%
Rainfall 0.00 in
Snow Depth Not available.
UV 9 out of 12
Pollen 8.90 out of 12
Air Quality Not available.
Flu Activity Not available.
METAR KAPC 042054Z 21016KT 10SM CLR 24/09 A2983 RMK AO2 SLP093 T02390089 58010

10-Day Weather Forecast

×

Almanac

Astronomy

Sep. 04, 2015 Rise Set
Actual Time
Civil Twilight
Nautical Twilight
Astronomical Twilight
Moon
Length of Visible Light
Length of Day
Tomorrow will be .
, % of the Moon is Illuminated

Today's Extremes

State Highs State Lows

Community

WunderPhotos

Upload Photos

1,852,297 photos uploaded!

WunderBlogs® & News

Nearby

Air Quality

  Air Quality AQ Index Pollutant
Not available.

Snow Depth

Station Depth Elevation

Earthquake Activity

City Distance Mag. Time & Date
Minimum magnitude displayed is 2.5.

Coastal Water Temperatures

Place Temperature

Stations

Nearby Weather Stations

Station Location Temp. Windchill Dew Point Humidity Wind Precip. Elev Updated Type